Time;durP1;ratioP1;P1;durP2;ratioP2;P2;SDS_P1;SDS_P2;PMS_P1;PMS_P2;Temp;Humidity;BMP_temperature;BMP_pressure;BME280_temperature;BME280_humidity;BME280_pressure;Samples;Min_cycle;Max_cycle;Signal;HPM_P1;HPM_P2
2022/12/20 00:01:34;;;;;;;8.85;6.45;;;8.20;92.70;;;;;;5035480;28;20053;-45
2022/12/20 00:04:04;;;;;;;9.52;6.38;;;8.30;92.80;;;;;;5046091;28;20033;-43
2022/12/20 00:06:33;;;;;;;10.82;6.30;;;8.30;92.70;;;;;;5055795;28;20020;-46
2022/12/20 00:09:02;;;;;;;9.70;6.68;;;8.30;92.70;;;;;;5055616;28;20033;-49
2022/12/20 00:11:29;;;;;;;7.95;6.20;;;8.30;92.70;;;;;;5039350;28;20477;-48
2022/12/20 00:13:56;;;;;;;7.95;6.47;;;8.20;92.70;;;;;;5035297;28;20027;-44
2022/12/20 00:16:26;;;;;;;7.68;6.03;;;8.30;92.80;;;;;;5035164;28;20029;-45
2022/12/20 00:18:56;;;;;;;7.60;5.70;;;8.30;92.70;;;;;;5035521;28;20125;-44
2022/12/20 00:21:23;;;;;;;9.73;5.95;;;8.30;92.80;;;;;;5049806;28;20037;-46
2022/12/20 00:23:52;;;;;;;9.25;6.00;;;8.30;92.80;;;;;;5054050;28;20036;-45
2022/12/20 00:26:22;;;;;;;12.93;6.65;;;8.30;92.90;;;;;;5054522;28;20057;-44
2022/12/20 00:28:49;;;;;;;7.70;5.40;;;8.20;93.00;;;;;;5036979;28;20063;-47
2022/12/20 00:31:17;;;;;;;7.85;6.35;;;8.30;93.00;;;;;;5035106;28;20075;-48
2022/12/20 00:33:46;;;;;;;11.48;6.40;;;8.40;93.10;;;;;;5045845;28;20081;-46
2022/12/20 00:36:14;;;;;;;10.38;6.20;;;8.40;93.00;;;;;;5054153;28;20036;-45
2022/12/20 00:38:50;;;;;;;9.38;6.15;;;8.40;93.00;;;;;;5055021;28;20048;-46
2022/12/20 00:41:20;;;;;;;10.05;5.90;;;8.40;93.00;;;;;;5033384;28;20478;-45
2022/12/20 00:43:47;;;;;;;7.68;6.18;;;8.40;92.90;;;;;;5022610;28;20034;-44
2022/12/20 00:46:15;;;;;;;11.50;7.03;;;8.40;92.90;;;;;;5026209;28;20033;-48
2022/12/20 00:48:42;;;;;;;9.07;5.68;;;8.40;92.90;;;;;;5024047;28;20021;-45
2022/12/20 00:51:18;;;;;;;9.90;6.38;;;8.40;93.00;;;;;;5024335;28;20107;-46
2022/12/20 00:53:45;;;;;;;7.28;5.75;;;8.40;93.00;;;;;;5025480;28;20463;-43
2022/12/20 00:56:12;;;;;;;8.77;5.85;;;8.40;93.10;;;;;;5022737;28;20838;-46
2022/12/20 00:58:40;;;;;;;11.15;5.65;;;8.50;92.90;;;;;;5025802;28;20037;-45
2022/12/20 01:01:17;;;;;;;11.20;5.90;;;8.50;92.90;;;;;;5023270;28;20107;-46
2022/12/20 01:03:43;;;;;;;8.15;6.40;;;8.50;92.80;;;;;;5020278;28;20340;-45
2022/12/20 01:06:09;;;;;;;12.15;6.15;;;8.50;92.70;;;;;;5053236;28;20043;-45
2022/12/20 01:08:38;;;;;;;8.23;5.60;;;8.40;92.80;;;;;;5054592;28;20075;-46
2022/12/20 01:11:17;;;;;;;8.03;6.00;;;8.50;92.90;;;;;;5036543;28;20041;-46
2022/12/20 01:13:46;;;;;;;10.55;6.30;;;8.50;92.90;;;;;;5034411;28;20259;-46
2022/12/20 01:16:33;;;;;;;9.80;6.97;;;8.60;92.90;;;;;;5035350;28;20368;-43
2022/12/20 01:19:00;;;;;;;10.35;5.80;;;8.50;92.70;;;;;;5054412;28;20051;-45
2022/12/20 01:21:28;;;;;;;11.30;6.30;;;8.50;92.80;;;;;;5054115;28;20122;-44
2022/12/20 01:23:58;;;;;;;6.97;5.28;;;8.50;92.80;;;;;;5052474;28;20024;-45
2022/12/20 01:26:31;;;;;;;8.85;5.60;;;8.50;92.70;;;;;;5054270;28;20029;-45
2022/12/20 01:28:59;;;;;;;8.43;5.22;;;8.50;92.80;;;;;;5052756;28;20040;-44
2022/12/20 01:31:26;;;;;;;9.20;5.25;;;8.50;92.70;;;;;;5052263;28;20028;-44
2022/12/20 01:33:53;;;;;;;7.18;5.32;;;8.40;92.80;;;;;;5053524;28;20025;-46
2022/12/20 01:36:27;;;;;;;11.27;7.03;;;8.50;92.80;;;;;;5054221;28;20025;-46
2022/12/20 01:39:00;;;;;;;8.02;5.50;;;8.50;92.80;;;;;;5036025;28;20025;-44
2022/12/20 01:41:28;;;;;;;10.25;6.00;;;8.40;92.80;;;;;;5033884;28;20411;-44
2022/12/20 01:44:15;;;;;;;8.82;5.60;;;8.40;92.80;;;;;;5033439;28;20030;-44
2022/12/20 01:46:44;;;;;;;9.38;5.93;;;8.40;92.90;;;;;;5039404;28;20094;-46
2022/12/20 01:49:37;;;;;;;9.50;5.78;;;8.40;92.80;;;;;;5052678;28;20187;-44
2022/12/20 01:52:33;;;;;;;7.82;5.90;;;8.50;92.70;;;;;;5039445;28;20478;-43
2022/12/20 01:55:11;;;;;;;9.10;5.82;;;8.40;92.70;;;;;;5034081;28;20022;-45
2022/12/20 01:58:09;;;;;;;8.20;5.97;;;8.40;92.70;;;;;;5032825;28;20029;-45
2022/12/20 02:00:36;;;;;;;11.05;5.30;;;8.50;92.70;;;;;;5032174;28;20022;-48
2022/12/20 02:03:08;;;;;;;9.07;6.45;;;8.40;92.60;;;;;;5033541;28;20124;-44
2022/12/20 02:05:41;;;;;;;6.55;4.88;;;8.50;92.50;;;;;;5033447;28;20409;-44
2022/12/20 02:08:13;;;;;;;8.35;4.60;;;8.50;92.40;;;;;;5036795;28;20411;-44
2022/12/20 02:11:07;;;;;;;10.82;5.38;;;8.50;92.40;;;;;;5051916;28;20025;-46
2022/12/20 02:13:48;;;;;;;7.97;5.53;;;8.50;92.40;;;;;;5052892;28;20072;-44
2022/12/20 02:16:25;;;;;;;8.27;6.10;;;8.40;92.40;;;;;;5052098;28;20040;-44
2022/12/20 02:19:27;;;;;;;9.13;5.20;;;8.50;92.50;;;;;;5038164;28;20098;-44
2022/12/20 02:22:12;;;;;;;8.98;5.28;;;8.50;92.50;;;;;;5032139;28;20057;-46
2022/12/20 02:24:56;;;;;;;9.18;5.30;;;8.50;92.60;;;;;;5033087;28;20447;-44
2022/12/20 02:27:36;;;;;;;8.25;6.68;;;8.50;92.60;;;;;;5033513;28;20026;-46
2022/12/20 02:30:19;;;;;;;7.53;5.45;;;8.50;92.60;;;;;;5031762;28;20040;-47
2022/12/20 02:33:07;;;;;;;8.25;5.28;;;8.60;92.60;;;;;;5051451;28;20156;-46
2022/12/20 02:35:35;;;;;;;6.95;4.70;;;8.60;92.50;;;;;;5052874;28;20048;-46
2022/12/20 02:38:23;;;;;;;7.60;4.50;;;8.60;92.50;;;;;;5039969;28;20088;-45
2022/12/20 02:40:54;;;;;;;6.43;4.40;;;8.60;92.40;;;;;;5013154;28;20571;-44
2022/12/20 02:46:09;;;;;;;6.85;4.90;;;8.70;92.30;;;;;;5052400;28;20537;-44
2022/12/20 02:48:37;;;;;;;8.10;4.95;;;8.60;92.20;;;;;;5052422;28;20025;-43
2022/12/20 02:51:06;;;;;;;6.38;3.80;;;8.60;92.20;;;;;;5050796;28;20025;-44
2022/12/20 02:53:33;;;;;;;7.88;5.05;;;8.60;92.30;;;;;;5052646;28;20032;-44
2022/12/20 02:56:08;;;;;;;6.47;4.65;;;8.60;92.30;;;;;;5051710;28;20083;-48
2022/12/20 02:58:46;;;;;;;6.25;4.18;;;8.50;92.30;;;;;;5052446;28;20482;-43
2022/12/20 03:01:31;;;;;;;5.90;4.70;;;8.60;92.40;;;;;;5055464;28;20124;-44
2022/12/20 03:03:58;;;;;;;8.77;4.88;;;8.60;92.30;;;;;;5052027;28;20045;-43
2022/12/20 03:06:24;;;;;;;6.28;4.32;;;8.60;92.20;;;;;;5056902;28;20115;-45
2022/12/20 03:08:51;;;;;;;8.88;4.57;;;8.60;92.30;;;;;;5056208;28;20040;-45
2022/12/20 03:11:20;;;;;;;7.63;4.18;;;8.60;92.20;;;;;;5055944;28;20028;-45
2022/12/20 03:13:53;;;;;;;4.97;3.63;;;8.60;92.30;;;;;;5016510;28;20528;-44
2022/12/20 03:16:22;;;;;;;7.90;4.50;;;8.70;92.40;;;;;;5017203;28;20036;-44
2022/12/20 03:18:49;;;;;;;9.35;5.22;;;8.70;92.20;;;;;;5016844;28;20096;-46
2022/12/20 03:21:16;;;;;;;7.68;5.00;;;8.70;92.20;;;;;;5016600;28;20481;-48
2022/12/20 03:23:43;;;;;;;6.68;4.30;;;8.70;92.20;;;;;;5015918;28;20034;-45
2022/12/20 03:26:09;;;;;;;6.88;4.35;;;8.70;92.30;;;;;;5030556;28;20044;-57
2022/12/20 03:28:39;;;;;;;6.75;4.53;;;8.70;92.20;;;;;;5056171;28;20370;-64
2022/12/20 03:31:06;;;;;;;7.72;5.43;;;8.80;92.40;;;;;;5055276;28;20021;-61
2022/12/20 03:33:32;;;;;;;5.63;4.10;;;8.80;92.50;;;;;;5056039;28;20121;-60
2022/12/20 03:35:59;;;;;;;7.65;4.95;;;8.90;92.70;;;;;;5042571;28;20097;-58
2022/12/20 03:38:25;;;;;;;5.72;4.22;;;8.90;92.80;;;;;;5035909;28;20048;-56
2022/12/20 03:40:55;;;;;;;5.53;4.43;;;8.90;92.80;;;;;;5049863;28;20024;-57
2022/12/20 03:43:22;;;;;;;8.30;4.80;;;8.80;92.80;;;;;;5055487;28;20103;-52
2022/12/20 03:45:48;;;;;;;6.68;4.15;;;8.80;92.80;;;;;;5041985;28;20041;-55
2022/12/20 03:48:15;;;;;;;7.30;3.78;;;8.80;92.70;;;;;;5035549;28;20064;-51
2022/12/20 03:50:44;;;;;;;6.47;4.15;;;8.80;92.70;;;;;;5046622;28;20025;-52
2022/12/20 03:53:11;;;;;;;9.73;4.72;;;8.90;92.70;;;;;;5055290;28;20036;-53
2022/12/20 03:55:38;;;;;;;5.93;3.72;;;8.80;92.60;;;;;;5055285;28;20033;-53
2022/12/20 03:58:04;;;;;;;6.55;3.72;;;8.90;92.50;;;;;;5053641;28;20043;-57
2022/12/20 04:00:32;;;;;;;6.20;3.75;;;8.80;92.50;;;;;;5054670;28;20345;-56
2022/12/20 04:02:58;;;;;;;5.68;3.67;;;8.90;92.60;;;;;;5051822;28;20194;-57
2022/12/20 04:05:27;;;;;;;9.68;4.05;;;8.90;92.60;;;;;;5034899;28;20032;-60
2022/12/20 04:07:53;;;;;;;9.32;5.10;;;8.90;92.60;;;;;;5034418;28;20124;-61
2022/12/20 04:10:18;;;;;;;7.28;3.70;;;8.90;92.40;;;;;;5047872;28;20116;-62
2022/12/20 04:12:45;;;;;;;5.45;3.83;;;8.90;92.40;;;;;;5053584;28;20033;-59
2022/12/20 04:15:12;;;;;;;10.52;4.20;;;8.90;92.50;;;;;;5045335;28;20053;-60
2022/12/20 04:17:39;;;;;;;7.15;3.90;;;8.90;92.50;;;;;;5035333;28;20060;-62
2022/12/20 04:20:17;;;;;;;5.55;3.85;;;8.90;92.40;;;;;;5034834;28;20026;-64
2022/12/20 04:22:50;;;;;;;6.43;4.30;;;8.90;92.50;;;;;;5043231;28;20033;-65
2022/12/20 04:25:19;;;;;;;5.88;4.03;;;8.90;92.70;;;;;;5053882;28;20025;-65
2022/12/20 04:27:45;;;;;;;9.50;5.67;;;8.90;92.80;;;;;;5053819;28;20017;-65
2022/12/20 04:30:11;;;;;;;6.03;3.83;;;8.90;92.80;;;;;;5053722;28;20540;-63
2022/12/20 04:32:38;;;;;;;9.70;4.07;;;8.90;92.90;;;;;;5055134;28;20032;-63
2022/12/20 04:35:05;;;;;;;8.48;4.35;;;8.90;93.00;;;;;;5051387;28;20588;-62
2022/12/20 04:37:32;;;;;;;6.38;4.40;;;9.00;93.10;;;;;;5034790;28;20037;-60
2022/12/20 04:39:59;;;;;;;7.80;4.43;;;9.00;93.10;;;;;;5034636;28;20049;-59
2022/12/20 04:42:26;;;;;;;6.15;4.85;;;9.00;93.10;;;;;;5026199;28;20017;-57
2022/12/20 04:44:58;;;;;;;6.57;4.43;;;8.90;93.20;;;;;;5034705;28;20032;-55
2022/12/20 04:47:24;;;;;;;7.88;3.72;;;9.00;93.20;;;;;;5034827;28;20026;-53
2022/12/20 04:49:51;;;;;;;7.72;4.85;;;8.90;93.20;;;;;;5034577;28;20462;-54
2022/12/20 04:55:04;;;;;;;6.50;4.85;;;8.90;93.30;;;;;;5041947;28;20044;-55
2022/12/20 04:57:29;;;;;;;8.02;4.55;;;8.90;93.30;;;;;;5034191;28;20030;-56
2022/12/20 04:59:57;;;;;;;6.68;4.05;;;8.90;93.30;;;;;;5033398;28;20037;-53
2022/12/20 05:02:23;;;;;;;6.10;4.93;;;8.90;93.40;;;;;;5023937;28;20091;-53
2022/12/20 05:04:49;;;;;;;6.10;4.45;;;8.90;93.40;;;;;;5023888;28;20060;-56
2022/12/20 05:07:17;;;;;;;6.28;4.15;;;8.90;93.60;;;;;;5025142;28;20340;-51
2022/12/20 05:09:44;;;;;;;7.18;4.50;;;8.90;93.50;;;;;;5023746;28;20428;-50
2022/12/20 05:12:13;;;;;;;9.40;4.03;;;8.90;93.70;;;;;;5027280;28;20033;-52
2022/12/20 05:14:40;;;;;;;7.93;4.07;;;8.90;93.60;;;;;;5023491;28;20478;-51
2022/12/20 05:17:08;;;;;;;5.15;3.42;;;8.90;93.50;;;;;;5023724;28;20021;-55
2022/12/20 05:19:35;;;;;;;6.43;3.90;;;8.90;93.50;;;;;;5025450;28;20036;-53
2022/12/20 05:27:33;;;;;;;9.32;4.40;;;8.80;93.50;;;;;;5026208;28;20044;-49
2022/12/20 05:30:01;;;;;;;6.88;4.03;;;8.80;93.60;;;;;;5007673;28;20022;-48
2022/12/20 05:32:29;;;;;;;5.90;4.25;;;8.80;93.70;;;;;;5030171;28;20125;-52
2022/12/20 05:34:57;;;;;;;5.80;4.35;;;8.80;93.70;;;;;;5035315;28;20117;-47
2022/12/20 05:37:24;;;;;;;8.20;4.40;;;8.90;93.70;;;;;;5023844;28;20379;-51
2022/12/20 05:39:51;;;;;;;5.50;3.97;;;8.90;93.70;;;;;;5000725;28;20080;-53
2022/12/20 05:42:20;;;;;;;8.75;4.25;;;8.90;93.70;;;;;;5026702;28;20374;-48
2022/12/20 05:44:48;;;;;;;6.72;4.63;;;8.90;93.70;;;;;;5021119;28;20026;-50
2022/12/20 05:47:15;;;;;;;9.75;4.38;;;8.90;93.70;;;;;;5020207;28;20033;-49
2022/12/20 05:49:42;;;;;;;6.13;4.22;;;8.90;93.70;;;;;;5029056;28;20519;-51
2022/12/20 05:52:08;;;;;;;6.88;4.40;;;8.90;93.70;;;;;;5031380;28;20494;-49
2022/12/20 05:54:33;;;;;;;7.85;4.30;;;8.90;93.80;;;;;;5013555;28;20048;-47
2022/12/20 05:57:00;;;;;;;7.75;4.40;;;8.90;93.70;;;;;;5019196;28;20101;-50
2022/12/20 05:59:26;;;;;;;5.38;4.00;;;8.90;93.70;;;;;;5021247;28;20092;-48
2022/12/20 06:01:54;;;;;;;6.28;4.25;;;8.90;93.80;;;;;;5023246;28;20516;-46
2022/12/20 06:04:21;;;;;;;6.07;4.43;;;8.90;93.80;;;;;;5021808;28;20025;-51
2022/12/20 06:06:47;;;;;;;5.70;4.45;;;8.90;93.80;;;;;;5025089;28;20049;-46
2022/12/20 06:09:13;;;;;;;7.20;4.05;;;9.00;93.90;;;;;;5024106;28;20391;-46
2022/12/20 06:11:42;;;;;;;9.15;4.82;;;8.90;93.80;;;;;;5030046;28;20041;-47
2022/12/20 06:14:09;;;;;;;7.60;4.68;;;9.00;93.80;;;;;;5025553;28;20029;-50
2022/12/20 06:16:36;;;;;;;6.55;4.30;;;8.90;93.90;;;;;;5026251;28;20113;-46
2022/12/20 06:19:03;;;;;;;7.68;5.45;;;8.90;93.80;;;;;;5012951;28;20100;-47
2022/12/20 06:21:30;;;;;;;8.98;5.32;;;8.90;93.90;;;;;;5021111;28;20032;-49
2022/12/20 06:23:58;;;;;;;8.88;5.03;;;8.90;93.90;;;;;;5022622;28;20077;-48
2022/12/20 06:26:25;;;;;;;7.78;5.38;;;8.90;93.90;;;;;;5027550;28;20029;-46
2022/12/20 06:28:53;;;;;;;7.78;5.22;;;9.00;94.00;;;;;;5032331;28;20455;-46
2022/12/20 06:31:19;;;;;;;9.50;5.45;;;9.00;93.90;;;;;;5023745;28;20018;-47
2022/12/20 06:33:46;;;;;;;8.43;5.88;;;9.00;93.90;;;;;;5013452;28;20030;-46
2022/12/20 06:36:15;;;;;;;6.78;5.28;;;9.00;94.00;;;;;;5031563;28;20022;-46
2022/12/20 06:38:42;;;;;;;10.90;5.47;;;9.10;94.10;;;;;;5031744;28;20033;-45
2022/12/20 06:41:09;;;;;;;9.15;6.25;;;9.10;94.00;;;;;;5030801;28;20470;-51
2022/12/20 06:43:36;;;;;;;7.47;5.20;;;9.10;93.90;;;;;;5028584;28;20037;-47
2022/12/20 06:46:03;;;;;;;9.85;4.97;;;9.10;93.90;;;;;;5012008;28;20478;-45
2022/12/20 06:48:30;;;;;;;6.07;5.10;;;9.10;94.00;;;;;;5017704;28;20045;-48
2022/12/20 06:50:57;;;;;;;9.20;4.60;;;9.20;94.00;;;;;;5021376;28;20095;-49
2022/12/20 06:53:23;;;;;;;7.75;5.25;;;9.20;94.00;;;;;;5027049;28;20459;-45
2022/12/20 06:55:51;;;;;;;11.75;5.80;;;9.20;94.10;;;;;;5028024;28;20035;-46
2022/12/20 06:58:18;;;;;;;8.40;5.05;;;9.20;94.10;;;;;;5019958;28;20030;-45
2022/12/20 07:00:44;;;;;;;8.30;5.43;;;9.20;94.00;;;;;;5023085;28;20018;-45
2022/12/20 07:03:12;;;;;;;8.98;6.15;;;9.20;94.00;;;;;;5021366;28;20037;-45
2022/12/20 07:05:40;;;;;;;9.27;6.45;;;9.20;94.00;;;;;;5026253;28;20993;-45
2022/12/20 07:08:07;;;;;;;8.18;5.90;;;9.20;94.00;;;;;;5032728;28;20083;-47
2022/12/20 07:10:36;;;;;;;12.43;6.15;;;9.10;94.10;;;;;;5043271;28;20348;-47
2022/12/20 07:13:02;;;;;;;7.80;5.63;;;9.10;94.10;;;;;;5032320;28;20037;-45
2022/12/20 07:15:29;;;;;;;10.85;6.57;;;9.10;94.20;;;;;;5032235;28;20057;-44
2022/12/20 07:17:56;;;;;;;8.65;5.65;;;9.10;94.20;;;;;;5030884;28;20033;-45
2022/12/20 07:20:22;;;;;;;13.15;6.78;;;9.10;94.20;;;;;;5032481;28;20370;-45
2022/12/20 07:22:49;;;;;;;10.70;7.20;;;9.20;94.30;;;;;;5031146;28;20025;-45
2022/12/20 07:25:15;;;;;;;10.63;6.43;;;9.20;94.20;;;;;;5031849;28;20033;-46
2022/12/20 07:27:40;;;;;;;10.02;7.10;;;9.20;94.20;;;;;;5019975;28;20034;-45
2022/12/20 07:30:08;;;;;;;10.38;6.78;;;9.20;94.20;;;;;;5022017;28;20036;-47
2022/12/20 07:32:35;;;;;;;8.45;6.28;;;9.20;94.10;;;;;;5021411;28;20097;-44
2022/12/20 07:35:00;;;;;;;7.68;6.25;;;9.20;94.10;;;;;;5020412;28;20028;-46
2022/12/20 07:37:28;;;;;;;8.35;6.47;;;9.20;94.20;;;;;;5019586;28;20105;-45
2022/12/20 07:39:55;;;;;;;11.35;7.70;;;9.20;94.20;;;;;;5019627;28;20424;-44
2022/12/20 07:42:25;;;;;;;9.57;6.25;;;9.20;94.20;;;;;;5011788;28;20037;-44
2022/12/20 07:44:52;;;;;;;10.55;7.38;;;9.30;94.20;;;;;;5014840;28;20042;-43
2022/12/20 07:47:21;;;;;;;11.77;7.72;;;9.30;94.20;;;;;;5019438;28;20046;-44
2022/12/20 07:49:50;;;;;;;9.97;6.83;;;9.30;94.10;;;;;;5020890;28;20025;-45
2022/12/20 07:52:21;;;;;;;9.65;6.93;;;9.20;94.00;;;;;;5024649;28;20268;-47
2022/12/20 07:54:57;;;;;;;9.45;7.00;;;9.20;94.10;;;;;;5032909;28;20324;-47
2022/12/20 07:57:31;;;;;;;8.75;7.32;;;9.20;94.10;;;;;;5021915;28;20033;-44
2022/12/20 08:00:00;;;;;;;8.15;7.13;;;9.20;94.20;;;;;;5024794;28;20431;-44
2022/12/20 08:02:33;;;;;;;;;;;9.30;94.20;;;;;;5036462;28;20057;-45
2022/12/20 08:05:03;;;;;;;10.15;7.45;;;9.30;94.20;;;;;;5038273;28;19909;-44
2022/12/20 08:07:30;;;;;;;11.75;7.78;;;9.40;94.20;;;;;;5028176;28;20038;-44
2022/12/20 08:09:57;;;;;;;8.80;7.38;;;9.40;94.20;;;;;;5032694;28;20367;-45
2022/12/20 08:12:28;;;;;;;12.25;7.15;;;9.30;94.20;;;;;;5034714;28;20075;-48
2022/12/20 08:14:57;;;;;;;11.50;7.93;;;9.40;94.30;;;;;;5029834;28;20041;-54
2022/12/20 08:17:24;;;;;;;12.13;8.40;;;9.40;94.20;;;;;;5032983;28;20034;-55
2022/12/20 08:19:51;;;;;;;10.05;8.13;;;9.40;94.20;;;;;;5033944;28;20037;-54
2022/12/20 08:22:18;;;;;;;13.45;8.55;;;9.40;94.20;;;;;;5033631;28;20029;-55
2022/12/20 08:24:45;;;;;;;9.57;8.10;;;9.40;94.30;;;;;;5033962;28;20055;-59
2022/12/20 08:27:12;;;;;;;12.73;9.60;;;9.40;94.30;;;;;;5026093;28;20036;-61
2022/12/20 08:29:38;;;;;;;11.85;8.60;;;9.40;94.40;;;;;;5020184;28;20141;-62
2022/12/20 08:32:04;;;;;;;9.60;7.80;;;9.40;94.50;;;;;;5042542;28;20113;-64
2022/12/20 08:34:32;;;;;;;13.95;9.25;;;9.40;94.50;;;;;;5034056;28;20029;-63
2022/12/20 08:37:01;;;;;;;14.25;9.55;;;9.40;94.60;;;;;;5033972;28;20106;-62
2022/12/20 08:39:31;;;;;;;14.52;8.80;;;9.40;94.60;;;;;;5036902;28;20043;-61
2022/12/20 08:41:58;;;;;;;12.70;9.35;;;9.30;94.70;;;;;;5034374;28;20459;-60
2022/12/20 08:44:25;;;;;;;12.82;9.73;;;9.40;94.80;;;;;;5034395;28;20026;-59
2022/12/20 08:46:53;;;;;;;12.40;9.45;;;9.40;94.90;;;;;;5034603;28;20466;-59
2022/12/20 08:49:19;;;;;;;14.57;10.57;;;9.30;94.90;;;;;;5030175;28;20044;-58
2022/12/20 08:51:45;;;;;;;15.10;10.15;;;9.40;95.10;;;;;;5029046;28;20112;-54
2022/12/20 08:54:12;;;;;;;11.85;10.43;;;9.40;95.10;;;;;;5025566;28;20057;-55
2022/12/20 08:56:38;;;;;;;13.38;9.93;;;9.40;95.10;;;;;;5033625;28;20699;-54
2022/12/20 08:59:05;;;;;;;11.43;9.23;;;9.40;95.20;;;;;;5032021;28;20033;-53
2022/12/20 09:01:34;;;;;;;14.98;10.82;;;9.40;95.20;;;;;;5024485;28;20062;-55
2022/12/20 09:04:02;;;;;;;15.20;10.95;;;9.40;95.20;;;;;;5023706;28;20045;-57
2022/12/20 09:06:29;;;;;;;13.70;10.48;;;9.40;95.20;;;;;;5027193;28;20056;-57
2022/12/20 09:08:59;;;;;;;14.77;11.43;;;9.40;95.30;;;;;;5025364;28;20064;-55
2022/12/20 09:11:26;;;;;;;13.93;11.20;;;9.40;95.30;;;;;;5029497;28;20389;-57
2022/12/20 09:13:57;;;;;;;14.00;11.30;;;9.40;95.30;;;;;;5036302;28;20109;-55
2022/12/20 09:16:30;;;;;;;16.27;11.02;;;9.40;95.40;;;;;;5031146;28;20079;-54
2022/12/20 09:18:58;;;;;;;14.07;11.70;;;9.40;95.30;;;;;;5018800;28;20033;-52
2022/12/20 09:21:26;;;;;;;15.88;13.18;;;9.40;95.30;;;;;;5029300;28;20402;-51
2022/12/20 09:23:54;;;;;;;15.27;11.93;;;9.40;95.30;;;;;;5037811;28;20108;-53
2022/12/20 09:26:23;;;;;;;14.65;12.38;;;9.40;95.30;;;;;;5038915;28;20037;-53
2022/12/20 09:28:50;;;;;;;21.05;12.35;;;9.50;95.40;;;;;;5032979;28;20361;-49
2022/12/20 09:31:18;;;;;;;13.23;11.38;;;9.50;95.40;;;;;;5026012;28;20025;-48
2022/12/20 09:33:45;;;;;;;16.33;12.63;;;9.50;95.40;;;;;;5023662;28;20096;-48
2022/12/20 09:36:20;;;;;;;14.00;12.40;;;9.50;95.40;;;;;;5025751;28;20033;-48
2022/12/20 09:38:48;;;;;;;15.80;12.57;;;9.60;95.40;;;;;;5032291;28;20021;-52
2022/12/20 09:41:42;;;;;;;15.43;12.27;;;9.60;95.40;;;;;;5031719;28;20025;-48
2022/12/20 09:44:24;;;;;;;16.70;12.77;;;9.60;95.40;;;;;;5033045;28;20433;-50
2022/12/20 09:46:58;;;;;;;13.55;10.75;;;9.60;95.40;;;;;;5026814;28;20539;-48
2022/12/20 09:49:33;;;;;;;13.70;10.88;;;9.60;95.30;;;;;;5029076;28;20125;-52
2022/12/20 09:52:44;;;;;;;12.63;11.32;;;9.60;95.40;;;;;;5032920;28;20354;-48
2022/12/20 09:55:19;;;;;;;15.80;10.50;;;9.60;95.40;;;;;;5039846;28;20046;-50
2022/12/20 09:57:59;;;;;;;13.15;11.80;;;9.70;95.40;;;;;;5033753;28;20037;-50
2022/12/20 10:00:29;;;;;;;12.95;10.55;;;9.60;95.40;;;;;;5043657;28;20029;-52
2022/12/20 10:02:56;;;;;;;14.38;10.60;;;9.60;95.30;;;;;;5031877;28;20041;-47
2022/12/20 10:05:50;;;;;;;13.02;10.43;;;9.60;95.30;;;;;;5029671;28;20087;-48
2022/12/20 10:08:48;;;;;;;13.73;11.23;;;9.60;95.30;;;;;;5032569;28;20455;-49
2022/12/20 10:11:39;;;;;;;14.57;10.40;;;9.60;95.30;;;;;;5033667;28;20048;-49
2022/12/20 10:14:28;;;;;;;12.23;10.45;;;9.70;95.30;;;;;;5040476;28;20056;-53
2022/12/20 10:17:01;;;;;;;12.95;9.48;;;9.70;95.20;;;;;;5031518;28;20800;-48
2022/12/20 10:19:59;;;;;;;12.98;10.32;;;9.70;95.20;;;;;;5028447;28;20183;-45
2022/12/20 10:22:36;;;;;;;17.02;9.95;;;9.70;95.20;;;;;;5033254;28;20112;-48
2022/12/20 10:25:29;;;;;;;11.48;9.35;;;9.80;95.20;;;;;;5043516;28;20056;-50
2022/12/20 10:28:02;;;;;;;13.32;9.63;;;9.90;95.10;;;;;;5032452;28;20036;-51
2022/12/20 10:30:31;;;;;;;13.45;8.82;;;9.90;95.10;;;;;;5030620;28;20021;-48
2022/12/20 10:33:01;;;;;;;10.93;7.60;;;9.90;94.90;;;;;;5045193;28;20025;-48
2022/12/20 10:35:36;;;;;;;11.40;7.68;;;10.00;94.90;;;;;;5032066;28;20079;-48
2022/12/20 10:38:16;;;;;;;11.00;7.60;;;10.00;94.80;;;;;;5032408;28;20108;-47
2022/12/20 10:40:59;;;;;;;12.68;7.93;;;10.00;94.70;;;;;;5032073;28;20034;-47
2022/12/20 10:43:35;;;;;;;10.60;7.72;;;10.00;94.50;;;;;;5031296;28;20091;-46
2022/12/20 10:46:07;;;;;;;10.55;7.03;;;10.00;94.30;;;;;;5028993;28;20112;-47
2022/12/20 10:48:51;;;;;;;8.15;6.55;;;10.00;94.10;;;;;;5026758;28;20103;-45
2022/12/20 10:51:21;;;;;;;7.47;5.93;;;10.10;94.00;;;;;;5028229;28;20030;-46
2022/12/20 10:54:00;;;;;;;8.52;6.53;;;10.10;93.70;;;;;;5036290;28;20096;-44
2022/12/20 10:56:28;;;;;;;7.03;5.70;;;10.20;93.60;;;;;;5029046;28;20040;-46
2022/12/20 10:59:20;;;;;;;8.27;5.82;;;10.20;93.40;;;;;;5026553;28;20575;-46
2022/12/20 11:01:48;;;;;;;8.68;5.78;;;10.20;93.30;;;;;;5020638;28;20049;-48
2022/12/20 11:04:33;;;;;;;11.00;6.03;;;10.20;93.10;;;;;;5036076;28;20508;-46
2022/12/20 11:07:20;;;;;;;7.30;4.65;;;10.20;93.00;;;;;;5020628;28;20033;-45
2022/12/20 11:10:02;;;;;;;6.95;5.18;;;10.30;93.00;;;;;;5020447;28;20049;-47
2022/12/20 11:12:28;;;;;;;6.53;4.90;;;10.30;92.80;;;;;;5026451;28;20086;-48
2022/12/20 11:15:18;;;;;;;10.23;5.50;;;10.40;92.60;;;;;;5034297;28;20090;-46
2022/12/20 11:17:50;;;;;;;7.60;4.45;;;10.40;92.50;;;;;;5011048;28;20030;-48
2022/12/20 11:20:43;;;;;;;7.38;4.88;;;10.50;92.20;;;;;;5019226;28;20563;-45
2022/12/20 11:23:49;;;;;;;10.13;5.70;;;10.40;92.10;;;;;;5037147;28;20043;-47
2022/12/20 11:26:36;;;;;;;8.13;4.85;;;10.40;92.10;;;;;;5023108;28;20037;-48
2022/12/20 11:29:19;;;;;;;8.48;5.00;;;10.50;92.00;;;;;;5034352;28;20056;-47
2022/12/20 11:31:58;;;;;;;8.95;5.57;;;10.40;92.10;;;;;;5023036;28;20086;-49
2022/12/20 11:34:41;;;;;;;6.23;4.73;;;10.40;91.90;;;;;;5027557;28;20037;-47
2022/12/20 11:37:35;;;;;;;7.30;4.75;;;10.40;92.00;;;;;;5034201;28;20497;-49
2022/12/20 11:40:45;;;;;;;6.43;4.57;;;10.40;91.80;;;;;;5030201;28;20037;-46
2022/12/20 11:43:28;;;;;;;6.57;4.38;;;10.50;91.70;;;;;;4995733;28;20378;-44
2022/12/20 11:46:31;;;;;;;7.57;4.38;;;10.50;91.60;;;;;;5035126;28;20036;-44
2022/12/20 11:49:35;;;;;;;7.65;4.15;;;10.50;91.60;;;;;;5034662;28;20126;-45
2022/12/20 11:52:19;;;;;;;6.47;4.32;;;10.60;91.60;;;;;;5030780;28;20025;-47
2022/12/20 11:55:04;;;;;;;6.97;4.70;;;10.70;91.40;;;;;;5036580;28;20457;-43
2022/12/20 11:57:38;;;;;;;8.02;4.30;;;10.80;91.20;;;;;;5020256;28;20084;-45
2022/12/20 12:00:06;;;;;;;8.02;4.47;;;10.80;91.10;;;;;;5033370;28;20049;-46
2022/12/20 12:03:14;;;;;;;7.53;4.70;;;10.80;90.90;;;;;;5030666;28;20057;-46
2022/12/20 12:05:49;;;;;;;5.50;3.33;;;10.80;90.90;;;;;;5034664;28;20076;-45
2022/12/20 12:08:23;;;;;;;6.90;4.43;;;10.80;90.90;;;;;;5034662;28;20506;-44
2022/12/20 12:11:13;;;;;;;6.25;4.22;;;10.80;91.00;;;;;;5034589;28;20033;-46
2022/12/20 12:13:40;;;;;;;7.78;4.22;;;10.80;91.20;;;;;;5022446;28;20017;-44
2022/12/20 12:16:21;;;;;;;6.78;4.30;;;10.80;91.00;;;;;;5031991;28;20459;-46
2022/12/20 12:18:52;;;;;;;5.43;4.25;;;10.80;91.20;;;;;;5034563;28;20452;-45
2022/12/20 12:21:31;;;;;;;6.75;4.20;;;10.70;91.20;;;;;;5034672;28;20042;-45
2022/12/20 12:24:18;;;;;;;9.52;4.68;;;10.70;91.30;;;;;;5033790;28;20060;-45
2022/12/20 12:26:49;;;;;;;7.53;4.35;;;10.70;91.40;;;;;;5033118;28;20047;-49
2022/12/20 12:29:19;;;;;;;7.35;3.90;;;10.70;91.40;;;;;;5016486;28;20638;-48
2022/12/20 12:31:53;;;;;;;6.38;4.55;;;10.70;91.50;;;;;;5034275;28;20033;-45
2022/12/20 12:34:56;;;;;;;8.00;4.13;;;10.70;91.70;;;;;;5048405;28;20083;-44
2022/12/20 12:37:48;;;;;;;7.03;3.45;;;10.70;91.70;;;;;;5034545;28;20032;-47
2022/12/20 12:40:54;;;;;;;6.93;4.47;;;10.60;91.90;;;;;;5034115;28;20359;-49
2022/12/20 12:43:54;;;;;;;6.68;4.35;;;10.60;91.90;;;;;;5039425;28;20029;-47
2022/12/20 12:46:34;;;;;;;6.97;4.60;;;10.60;92.10;;;;;;5034495;28;20018;-46
2022/12/20 12:49:12;;;;;;;6.63;4.70;;;10.50;92.10;;;;;;5028063;28;20041;-47
2022/12/20 12:51:48;;;;;;;7.20;5.38;;;10.50;92.30;;;;;;5024398;28;20039;-46
2022/12/20 12:54:35;;;;;;;6.72;4.28;;;10.40;92.30;;;;;;5026273;28;20067;-47
2022/12/20 12:57:20;;;;;;;7.57;4.78;;;10.40;92.60;;;;;;5024562;28;20040;-47
2022/12/20 12:59:50;;;;;;;6.07;4.47;;;10.40;92.70;;;;;;5032832;28;20734;-46
2022/12/20 13:02:34;;;;;;;;;;;10.40;92.80;;;;;;5022447;28;20053;-44
2022/12/20 13:05:08;;;;;;;9.80;5.18;;;10.40;92.90;;;;;;5034129;28;19905;-44
2022/12/20 13:07:39;;;;;;;7.20;4.32;;;10.30;92.90;;;;;;5038982;28;20033;-45
2022/12/20 13:10:14;;;;;;;6.35;4.85;;;10.30;93.00;;;;;;5032938;28;20060;-44
2022/12/20 13:12:39;;;;;;;7.28;4.80;;;10.30;93.20;;;;;;5029958;28;20478;-44
2022/12/20 13:15:23;;;;;;;6.97;5.07;;;10.30;93.20;;;;;;5037622;28;20112;-44
2022/12/20 13:18:10;;;;;;;8.13;4.97;;;10.30;93.20;;;;;;5033828;28;20458;-46
2022/12/20 13:20:38;;;;;;;8.98;4.30;;;10.30;93.20;;;;;;5033639;28;20504;-45
2022/12/20 13:23:22;;;;;;;6.70;4.60;;;10.30;93.30;;;;;;5033530;28;20045;-45
2022/12/20 13:25:51;;;;;;;8.07;5.32;;;10.30;93.40;;;;;;5032716;28;20075;-44
2022/12/20 13:28:22;;;;;;;10.70;4.88;;;10.30;93.40;;;;;;5038108;28;20033;-46
2022/12/20 13:31:09;;;;;;;8.50;5.13;;;10.30;93.50;;;;;;5024460;28;20463;-45